PWSweather.com
Personal Weather Stations
Station Observations
KMAMEDFI2
Medfield, MA 02052

Medfield, MA 02052

Lat: 42.1900822, Lon: -71.3296889

Elevation: 138

Station Type: Rainwise WS MK-III

http://www.medfieldweather.com

High Low Average
Temperature 84.6°F29.2°C 48.5°F9.2°C 64.8°F18.2°C
Dew Point 61.7°F16.5°C 47.7°F8.7°C 54.9°F12.7°C
Winds 3.8 mph 6.1 kmh Calm Calm 1.0 mph WSW1.6 kmh WSW
Wind Gusts 9.1 mph14.6 kmh -- 2.0 mph3.2 kmh
Humidity 98% 34% 76%
Pressure 30.05 in1017.6 mb 29.86 in1011.2 mb -
Precipitation 0.00 in0.0 mm - -
Hour Temp Dew Point Humidity Winds Wind Gusts Pressure Precip Precip Rate Daily Precip Total
12:00 AM 53.9°F12.2°C 53.0°F11.7°C 97% Calm Calm -- 30.05 in1017.6 mb - 0.00 in0.0 mm 0.00 in0.0 mm
12:10 AM 54.0°F12.2°C 53.2°F11.8°C 97% Calm Calm -- 30.05 in1017.6 mb - 0.00 in0.0 mm 0.00 in0.0 mm
12:20 AM 53.7°F12.1°C 52.8°F11.6°C 97% Calm Calm -- 30.05 in1017.6 mb - 0.00 in0.0 mm 0.00 in0.0 mm
12:30 AM 53.3°F11.8°C 52.5°F11.4°C 97% Calm Calm -- 30.04 in1017.3 mb - 0.00 in0.0 mm 0.00 in0.0 mm
12:40 AM 53.6°F12.0°C 52.7°F11.5°C 97% 0.6 mph W1.0 kmh W 1.3 mph2.1 kmh 30.04 in1017.3 mb - 0.00 in0.0 mm 0.00 in0.0 mm
12:50 AM 53.5°F11.9°C 52.7°F11.5°C 97% Calm Calm -- 30.04 in1017.3 mb - 0.00 in0.0 mm 0.00 in0.0 mm
01:00 AM 53.0°F11.7°C 52.2°F11.2°C 97% Calm Calm -- 30.04 in1017.3 mb - 0.00 in0.0 mm 0.00 in0.0 mm
01:10 AM 52.4°F11.3°C 51.6°F10.9°C 97% Calm Calm -- 30.03 in1016.9 mb - 0.00 in0.0 mm 0.00 in0.0 mm
01:20 AM 51.8°F11.0°C 51.0°F10.6°C 97% Calm Calm -- 30.03 in1016.9 mb - 0.00 in0.0 mm 0.00 in0.0 mm
01:30 AM 51.9°F11.1°C 51.0°F10.6°C 97% Calm Calm -- 30.03 in1016.9 mb - 0.00 in0.0 mm 0.00 in0.0 mm
01:40 AM 52.4°F11.3°C 51.6°F10.9°C 97% Calm Calm -- 30.03 in1016.9 mb - 0.00 in0.0 mm 0.00 in0.0 mm
01:50 AM 51.9°F11.1°C 51.1°F10.6°C 97% Calm Calm -- 30.03 in1016.9 mb - 0.00 in0.0 mm 0.00 in0.0 mm
02:00 AM 51.5°F10.8°C 50.7°F10.4°C 97% Calm Calm -- 30.02 in1016.6 mb - 0.00 in0.0 mm 0.00 in0.0 mm
02:10 AM 51.6°F10.9°C 50.7°F10.4°C 97% Calm Calm -- 30.02 in1016.6 mb - 0.00 in0.0 mm 0.00 in0.0 mm
02:20 AM 51.4°F10.8°C 50.5°F10.3°C 97% Calm Calm -- 30.02 in1016.6 mb - 0.00 in0.0 mm 0.00 in0.0 mm
02:30 AM 50.6°F10.3°C 49.8°F9.9°C 97% Calm Calm -- 30.01 in1016.3 mb - 0.00 in0.0 mm 0.00 in0.0 mm
02:40 AM 51.1°F10.6°C 50.3°F10.2°C 97% Calm Calm -- 30.01 in1016.3 mb - 0.00 in0.0 mm 0.00 in0.0 mm
02:50 AM 51.6°F10.9°C 50.8°F10.4°C 97% Calm Calm -- 30.01 in1016.3 mb - 0.00 in0.0 mm 0.00 in0.0 mm
03:00 AM 50.8°F10.4°C 50.0°F10.0°C 97% Calm Calm -- 30.01 in1016.3 mb - 0.00 in0.0 mm 0.00 in0.0 mm
03:10 AM 50.1°F10.1°C 49.3°F9.6°C 97% Calm Calm -- 30.00 in1015.9 mb - 0.00 in0.0 mm 0.00 in0.0 mm
03:20 AM 50.0°F10.0°C 49.2°F9.6°C 97% Calm Calm -- 30.00 in1015.9 mb - 0.00 in0.0 mm 0.00 in0.0 mm
03:30 AM 49.7°F9.8°C 48.9°F9.4°C 97% Calm Calm -- 30.01 in1016.3 mb - 0.00 in0.0 mm 0.00 in0.0 mm
03:40 AM 49.6°F9.8°C 48.8°F9.3°C 97% Calm Calm -- 30.01 in1016.3 mb - 0.00 in0.0 mm 0.00 in0.0 mm
03:50 AM 50.3°F10.2°C 49.5°F9.7°C 97% Calm Calm -- 30.00 in1015.9 mb - 0.00 in0.0 mm 0.00 in0.0 mm
04:00 AM 51.0°F10.6°C 50.2°F10.1°C 97% Calm Calm -- 30.00 in1015.9 mb - 0.00 in0.0 mm 0.00 in0.0 mm
04:10 AM 50.2°F10.1°C 49.4°F9.7°C 97% Calm Calm -- 30.00 in1015.9 mb - 0.00 in0.0 mm 0.00 in0.0 mm
04:20 AM 49.4°F9.7°C 48.5°F9.2°C 97% Calm Calm -- 30.00 in1015.9 mb - 0.00 in0.0 mm 0.00 in0.0 mm
04:30 AM 48.9°F9.4°C 48.1°F8.9°C 97% Calm Calm -- 30.00 in1015.9 mb - 0.00 in0.0 mm 0.00 in0.0 mm
04:40 AM 48.5°F9.2°C 47.7°F8.7°C 97% 0.1 mph W0.2 kmh W 1.3 mph2.1 kmh 30.00 in1015.9 mb - 0.00 in0.0 mm 0.00 in0.0 mm
04:50 AM 48.8°F9.3°C 47.9°F8.8°C 97% Calm Calm -- 30.00 in1015.9 mb - 0.00 in0.0 mm 0.00 in0.0 mm
05:00 AM 48.7°F9.3°C 47.9°F8.8°C 97% Calm Calm -- 29.99 in1015.6 mb - 0.00 in0.0 mm 0.00 in0.0 mm
05:10 AM 48.6°F9.2°C 47.7°F8.7°C 97% Calm Calm -- 30.00 in1015.9 mb - 0.00 in0.0 mm 0.00 in0.0 mm
05:20 AM 48.6°F9.2°C 47.8°F8.8°C 97% Calm Calm -- 30.00 in1015.9 mb - 0.00 in0.0 mm 0.00 in0.0 mm
05:30 AM 49.1°F9.5°C 48.3°F9.1°C 97% Calm Calm -- 30.00 in1015.9 mb - 0.00 in0.0 mm 0.00 in0.0 mm
05:40 AM 49.8°F9.9°C 49.0°F9.4°C 97% Calm Calm -- 29.99 in1015.6 mb - 0.00 in0.0 mm 0.00 in0.0 mm
05:50 AM 49.0°F9.4°C 48.1°F8.9°C 97% Calm Calm -- 30.00 in1015.9 mb - 0.00 in0.0 mm 0.00 in0.0 mm
06:00 AM 48.8°F9.3°C 47.9°F8.8°C 97% Calm Calm -- 30.00 in1015.9 mb - 0.00 in0.0 mm 0.00 in0.0 mm
06:10 AM 48.8°F9.3°C 48.0°F8.9°C 97% Calm Calm -- 29.99 in1015.6 mb - 0.00 in0.0 mm 0.00 in0.0 mm
06:20 AM 49.1°F9.5°C 48.3°F9.1°C 97% Calm Calm -- 29.99 in1015.6 mb - 0.00 in0.0 mm 0.00 in0.0 mm
06:30 AM 49.1°F9.5°C 48.3°F9.1°C 97% Calm Calm -- 29.99 in1015.6 mb - 0.00 in0.0 mm 0.00 in0.0 mm
06:40 AM 50.0°F10.0°C 49.2°F9.6°C 97% Calm Calm -- 29.99 in1015.6 mb - 0.00 in0.0 mm 0.00 in0.0 mm
06:50 AM 51.2°F10.7°C 50.4°F10.2°C 97% Calm Calm -- 29.99 in1015.6 mb - 0.00 in0.0 mm 0.00 in0.0 mm
07:00 AM 51.8°F11.0°C 51.0°F10.6°C 97% Calm Calm -- 29.99 in1015.6 mb - 0.00 in0.0 mm 0.00 in0.0 mm
07:10 AM 52.5°F11.4°C 51.7°F10.9°C 97% Calm Calm -- 29.98 in1015.2 mb - 0.00 in0.0 mm 0.00 in0.0 mm
07:20 AM 54.1°F12.3°C 53.2°F11.8°C 97% 0.2 mph NNW0.3 kmh NNW -- 29.98 in1015.2 mb - 0.00 in0.0 mm 0.00 in0.0 mm
07:30 AM 55.0°F12.8°C 54.2°F12.3°C 97% 0.6 mph NNW1.0 kmh NNW 2.6 mph4.2 kmh 29.98 in1015.2 mb - 0.00 in0.0 mm 0.00 in0.0 mm
07:40 AM 56.1°F13.4°C 55.3°F12.9°C 97% 0.7 mph NNW1.1 kmh NNW 2.6 mph4.2 kmh 29.99 in1015.6 mb - 0.00 in0.0 mm 0.00 in0.0 mm
07:50 AM 57.1°F13.9°C 56.2°F13.4°C 97% Calm Calm 1.3 mph2.1 kmh 29.99 in1015.6 mb - 0.00 in0.0 mm 0.00 in0.0 mm
08:00 AM 58.1°F14.5°C 57.5°F14.2°C 98% 0.1 mph WSW0.2 kmh WSW 2.6 mph4.2 kmh 29.99 in1015.6 mb - 0.00 in0.0 mm 0.00 in0.0 mm
08:10 AM 59.6°F15.3°C 59.0°F15.0°C 98% 0.1 mph NW0.2 kmh NW 1.3 mph2.1 kmh 30.00 in1015.9 mb - 0.00 in0.0 mm 0.00 in0.0 mm
08:20 AM 60.3°F15.7°C 59.7°F15.4°C 98% 1.3 mph WSW2.1 kmh WSW 2.6 mph4.2 kmh 30.00 in1015.9 mb - 0.00 in0.0 mm 0.00 in0.0 mm
08:30 AM 61.8°F16.6°C 60.3°F15.7°C 95% Calm Calm -- 30.00 in1015.9 mb - 0.00 in0.0 mm 0.00 in0.0 mm
08:40 AM 63.1°F17.3°C 60.1°F15.6°C 90% 1.5 mph WSW2.4 kmh WSW 3.9 mph6.3 kmh 30.00 in1015.9 mb - 0.00 in0.0 mm 0.00 in0.0 mm
08:50 AM 64.6°F18.1°C 60.0°F15.6°C 85% 1.9 mph S3.1 kmh S 2.6 mph4.2 kmh 30.00 in1015.9 mb - 0.00 in0.0 mm 0.00 in0.0 mm
09:00 AM 65.9°F18.8°C 60.9°F16.1°C 84% 1.0 mph NNW1.6 kmh NNW 1.3 mph2.1 kmh 30.00 in1015.9 mb - 0.00 in0.0 mm 0.00 in0.0 mm
09:10 AM 66.9°F19.4°C 60.5°F15.8°C 80% 2.4 mph SSE3.9 kmh SSE 2.6 mph4.2 kmh 30.00 in1015.9 mb - 0.00 in0.0 mm 0.00 in0.0 mm
09:20 AM 68.1°F20.1°C 61.0°F16.1°C 78% 1.5 mph S2.4 kmh S 2.6 mph4.2 kmh 30.00 in1015.9 mb - 0.00 in0.0 mm 0.00 in0.0 mm
09:30 AM 69.6°F20.9°C 61.3°F16.3°C 75% 2.0 mph WSW3.2 kmh WSW 2.6 mph4.2 kmh 30.00 in1015.9 mb - 0.00 in0.0 mm 0.00 in0.0 mm
09:40 AM 70.8°F21.6°C 61.7°F16.5°C 73% 1.9 mph W3.1 kmh W 2.6 mph4.2 kmh 30.00 in1015.9 mb - 0.00 in0.0 mm 0.00 in0.0 mm
09:50 AM 71.7°F22.1°C 60.6°F15.9°C 68% 2.0 mph W3.2 kmh W 2.6 mph4.2 kmh 30.00 in1015.9 mb - 0.00 in0.0 mm 0.00 in0.0 mm
10:00 AM 72.6°F22.6°C 60.6°F15.9°C 66% 2.3 mph SW3.7 kmh SW 2.6 mph4.2 kmh 30.00 in1015.9 mb - 0.00 in0.0 mm 0.00 in0.0 mm
10:10 AM 74.2°F23.4°C 58.9°F14.9°C 59% 0.4 mph WNW0.6 kmh WNW 1.3 mph2.1 kmh 30.01 in1016.3 mb - 0.00 in0.0 mm 0.00 in0.0 mm
10:20 AM 74.9°F23.8°C 58.1°F14.5°C 56% 1.8 mph WSW2.9 kmh WSW 5.2 mph8.4 kmh 30.00 in1015.9 mb - 0.00 in0.0 mm 0.00 in0.0 mm
10:30 AM 75.9°F24.4°C 59.1°F15.1°C 56% 2.8 mph SW4.5 kmh SW 5.2 mph8.4 kmh 30.00 in1015.9 mb - 0.00 in0.0 mm 0.00 in0.0 mm
10:40 AM 77.1°F25.1°C 57.0°F13.9°C 50% 2.5 mph SW4.0 kmh SW 3.9 mph6.3 kmh 30.00 in1015.9 mb - 0.00 in0.0 mm 0.00 in0.0 mm
10:50 AM 78.4°F25.8°C 57.7°F14.3°C 49% 2.2 mph SSW3.5 kmh SSW 6.5 mph10.5 kmh 30.00 in1015.9 mb - 0.00 in0.0 mm 0.00 in0.0 mm
11:00 AM 79.1°F26.2°C 54.0°F12.2°C 42% 3.8 mph SW6.1 kmh SW 5.2 mph8.4 kmh 30.01 in1016.3 mb - 0.00 in0.0 mm 0.00 in0.0 mm
11:10 AM 79.6°F26.4°C 55.8°F13.2°C 44% 3.2 mph W5.1 kmh W 3.9 mph6.3 kmh 30.01 in1016.3 mb - 0.00 in0.0 mm 0.00 in0.0 mm
11:20 AM 80.7°F27.1°C 57.4°F14.1°C 45% 2.2 mph W3.5 kmh W 2.6 mph4.2 kmh 30.00 in1015.9 mb - 0.00 in0.0 mm 0.00 in0.0 mm
11:30 AM 81.0°F27.2°C 55.8°F13.2°C 42% 3.6 mph S5.8 kmh S 6.5 mph10.5 kmh 30.00 in1015.9 mb - 0.00 in0.0 mm 0.00 in0.0 mm
11:40 AM 81.0°F27.2°C 55.8°F13.2°C 42% 2.8 mph SSE4.5 kmh SSE 7.8 mph12.6 kmh 30.00 in1015.9 mb - 0.00 in0.0 mm 0.00 in0.0 mm
11:50 AM 80.9°F27.2°C 55.7°F13.2°C 42% 3.3 mph S5.3 kmh S 7.8 mph12.6 kmh 30.00 in1015.9 mb - 0.00 in0.0 mm 0.00 in0.0 mm
12:00 PM 81.4°F27.4°C 56.1°F13.4°C 42% 2.1 mph WSW3.4 kmh WSW 6.5 mph10.5 kmh 30.00 in1015.9 mb - 0.00 in0.0 mm 0.00 in0.0 mm
12:10 PM 82.2°F27.9°C 55.5°F13.1°C 40% 2.6 mph S4.2 kmh S 3.9 mph6.3 kmh 29.99 in1015.6 mb - 0.00 in0.0 mm 0.00 in0.0 mm
12:20 PM 82.6°F28.1°C 56.5°F13.6°C 41% 2.2 mph SSE3.5 kmh SSE 3.9 mph6.3 kmh 29.99 in1015.6 mb - 0.00 in0.0 mm 0.00 in0.0 mm
12:30 PM 83.0°F28.3°C 54.7°F12.6°C 38% 2.7 mph SW4.3 kmh SW 7.8 mph12.6 kmh 29.99 in1015.6 mb - 0.00 in0.0 mm 0.00 in0.0 mm
12:40 PM 83.0°F28.3°C 56.2°F13.4°C 40% 2.0 mph NW3.2 kmh NW 7.8 mph12.6 kmh 29.99 in1015.6 mb - 0.00 in0.0 mm 0.00 in0.0 mm
12:50 PM 83.9°F28.8°C 56.3°F13.5°C 39% 1.4 mph SW2.3 kmh SW 2.6 mph4.2 kmh 29.99 in1015.6 mb - 0.00 in0.0 mm 0.00 in0.0 mm
01:00 PM 84.3°F29.1°C 55.2°F12.9°C 37% 2.6 mph SSW4.2 kmh SSW 5.2 mph8.4 kmh 29.99 in1015.6 mb - 0.00 in0.0 mm 0.00 in0.0 mm
01:10 PM 83.8°F28.8°C 54.8°F12.7°C 37% 3.8 mph WSW6.1 kmh WSW 5.2 mph8.4 kmh 29.98 in1015.2 mb - 0.00 in0.0 mm 0.00 in0.0 mm
01:20 PM 84.0°F28.9°C 54.9°F12.7°C 37% 2.3 mph SSE3.7 kmh SSE 5.2 mph8.4 kmh 29.98 in1015.2 mb - 0.00 in0.0 mm 0.00 in0.0 mm
01:30 PM 84.6°F29.2°C 57.6°F14.2°C 40% 3.3 mph SE5.3 kmh SE 5.2 mph8.4 kmh 29.97 in1014.9 mb - 0.00 in0.0 mm 0.00 in0.0 mm
01:40 PM 84.4°F29.1°C 55.2°F12.9°C 37% 3.3 mph WSW5.3 kmh WSW 9.1 mph14.6 kmh 29.97 in1014.9 mb - 0.00 in0.0 mm 0.00 in0.0 mm
01:50 PM 83.8°F28.8°C 54.8°F12.7°C 37% 3.2 mph SW5.1 kmh SW 7.8 mph12.6 kmh 29.97 in1014.9 mb - 0.00 in0.0 mm 0.00 in0.0 mm
02:00 PM 84.0°F28.9°C 56.4°F13.6°C 39% 2.6 mph S4.2 kmh S 5.2 mph8.4 kmh 29.97 in1014.9 mb - 0.00 in0.0 mm 0.00 in0.0 mm
02:10 PM 84.0°F28.9°C 55.7°F13.2°C 38% 2.7 mph SW4.3 kmh SW 3.9 mph6.3 kmh 29.97 in1014.9 mb - 0.00 in0.0 mm 0.00 in0.0 mm
02:20 PM 84.2°F29.0°C 55.9°F13.3°C 38% 1.8 mph WNW2.9 kmh WNW 7.8 mph12.6 kmh 29.96 in1014.6 mb - 0.00 in0.0 mm 0.00 in0.0 mm
02:30 PM 83.8°F28.8°C 54.0°F12.2°C 36% 3.7 mph S6.0 kmh S 5.2 mph8.4 kmh 29.96 in1014.6 mb - 0.00 in0.0 mm 0.00 in0.0 mm
02:40 PM 83.6°F28.7°C 53.0°F11.7°C 35% 3.7 mph WSW6.0 kmh WSW 5.2 mph8.4 kmh 29.96 in1014.6 mb - 0.00 in0.0 mm 0.00 in0.0 mm
02:50 PM 83.8°F28.8°C 52.4°F11.3°C 34% 3.0 mph WNW4.8 kmh WNW 5.2 mph8.4 kmh 29.96 in1014.6 mb - 0.00 in0.0 mm 0.00 in0.0 mm
03:00 PM 83.4°F28.6°C 52.1°F11.2°C 34% 2.0 mph SSE3.2 kmh SSE 5.2 mph8.4 kmh 29.95 in1014.2 mb - 0.00 in0.0 mm 0.00 in0.0 mm
03:10 PM 83.4°F28.6°C 52.1°F11.2°C 34% 3.3 mph SW5.3 kmh SW 6.5 mph10.5 kmh 29.95 in1014.2 mb - 0.00 in0.0 mm 0.00 in0.0 mm
03:20 PM 82.9°F28.3°C 52.4°F11.3°C 35% 2.4 mph WNW3.9 kmh WNW 2.6 mph4.2 kmh 29.95 in1014.2 mb - 0.00 in0.0 mm 0.00 in0.0 mm
03:30 PM 82.7°F28.2°C 52.3°F11.3°C 35% 3.4 mph WSW5.5 kmh WSW 6.5 mph10.5 kmh 29.95 in1014.2 mb - 0.00 in0.0 mm 0.00 in0.0 mm
03:40 PM 82.5°F28.1°C 52.9°F11.6°C 36% 3.4 mph WSW5.5 kmh WSW 3.9 mph6.3 kmh 29.95 in1014.2 mb - 0.00 in0.0 mm 0.00 in0.0 mm
03:50 PM 82.5°F28.1°C 54.3°F12.4°C 38% 2.2 mph SW3.5 kmh SW 2.6 mph4.2 kmh 29.94 in1013.9 mb - 0.00 in0.0 mm 0.00 in0.0 mm
04:00 PM 82.2°F27.9°C 54.8°F12.7°C 39% 1.7 mph S2.7 kmh S 2.6 mph4.2 kmh 29.94 in1013.9 mb - 0.00 in0.0 mm 0.00 in0.0 mm
04:10 PM 81.4°F27.4°C 54.1°F12.3°C 39% 2.8 mph SSW4.5 kmh SSW 5.2 mph8.4 kmh 29.94 in1013.9 mb - 0.00 in0.0 mm 0.00 in0.0 mm
04:20 PM 80.1°F26.7°C 54.9°F12.7°C 42% 0.8 mph W1.3 kmh W 2.6 mph4.2 kmh 29.94 in1013.9 mb - 0.00 in0.0 mm 0.00 in0.0 mm
04:30 PM 79.3°F26.3°C 54.2°F12.3°C 42% 1.6 mph SW2.6 kmh SW 3.9 mph6.3 kmh 29.93 in1013.5 mb - 0.00 in0.0 mm 0.00 in0.0 mm
04:40 PM 78.6°F25.9°C 54.2°F12.3°C 43% 2.2 mph W3.5 kmh W 2.6 mph4.2 kmh 29.93 in1013.5 mb - 0.00 in0.0 mm 0.00 in0.0 mm
04:50 PM 77.6°F25.3°C 55.2°F12.9°C 46% 0.9 mph WSW1.4 kmh WSW 2.6 mph4.2 kmh 29.93 in1013.5 mb - 0.00 in0.0 mm 0.00 in0.0 mm
05:00 PM 76.4°F24.7°C 57.5°F14.2°C 52% 0.1 mph W0.2 kmh W -- 29.93 in1013.5 mb - 0.00 in0.0 mm 0.00 in0.0 mm
05:10 PM 74.7°F23.7°C 56.5°F13.6°C 53% 0.1 mph W0.2 kmh W 1.3 mph2.1 kmh 29.93 in1013.5 mb - 0.00 in0.0 mm 0.00 in0.0 mm
05:20 PM 73.6°F23.1°C 55.4°F13.0°C 53% 0.4 mph W0.6 kmh W 1.3 mph2.1 kmh 29.92 in1013.2 mb - 0.00 in0.0 mm 0.00 in0.0 mm
05:30 PM 72.8°F22.7°C 55.7°F13.2°C 55% 0.7 mph W1.1 kmh W 1.3 mph2.1 kmh 29.92 in1013.2 mb - 0.00 in0.0 mm 0.00 in0.0 mm
05:40 PM 71.8°F22.1°C 56.7°F13.7°C 59% 0.9 mph W1.4 kmh W 1.3 mph2.1 kmh 29.91 in1012.9 mb - 0.00 in0.0 mm 0.00 in0.0 mm
05:50 PM 70.7°F21.5°C 56.6°F13.7°C 61% 1.9 mph WNW3.1 kmh WNW 2.6 mph4.2 kmh 29.91 in1012.9 mb - 0.00 in0.0 mm 0.00 in0.0 mm
06:00 PM 69.8°F21.0°C 57.1°F13.9°C 64% 0.4 mph NW0.6 kmh NW -- 29.90 in1012.5 mb - 0.00 in0.0 mm 0.00 in0.0 mm
06:10 PM 68.6°F20.3°C 58.1°F14.5°C 69% Calm Calm -- 29.90 in1012.5 mb - 0.00 in0.0 mm 0.00 in0.0 mm
06:20 PM 67.6°F19.8°C 57.5°F14.2°C 70% Calm Calm -- 29.90 in1012.5 mb - 0.00 in0.0 mm 0.00 in0.0 mm
06:30 PM 67.1°F19.5°C 58.5°F14.7°C 74% Calm Calm -- 29.89 in1012.2 mb - 0.00 in0.0 mm 0.00 in0.0 mm
06:40 PM 66.6°F19.2°C 57.6°F14.2°C 73% Calm Calm -- 29.89 in1012.2 mb - 0.00 in0.0 mm 0.00 in0.0 mm
06:50 PM 66.0°F18.9°C 58.2°F14.6°C 76% Calm Calm -- 29.89 in1012.2 mb - 0.00 in0.0 mm 0.00 in0.0 mm
07:00 PM 65.5°F18.6°C 58.1°F14.5°C 77% Calm Calm -- 29.89 in1012.2 mb - 0.00 in0.0 mm 0.00 in0.0 mm
07:10 PM 64.7°F18.2°C 58.0°F14.4°C 79% Calm Calm -- 29.89 in1012.2 mb - 0.00 in0.0 mm 0.00 in0.0 mm
07:20 PM 63.5°F17.5°C 58.2°F14.6°C 83% Calm Calm -- 29.89 in1012.2 mb - 0.00 in0.0 mm 0.00 in0.0 mm
07:30 PM 63.0°F17.2°C 58.7°F14.8°C 86% Calm Calm -- 29.89 in1012.2 mb - 0.00 in0.0 mm 0.00 in0.0 mm
07:40 PM 63.2°F17.3°C 58.9°F14.9°C 86% Calm Calm -- 29.88 in1011.9 mb - 0.00 in0.0 mm 0.00 in0.0 mm
07:50 PM 63.4°F17.4°C 58.8°F14.9°C 85% Calm Calm -- 29.88 in1011.9 mb - 0.00 in0.0 mm 0.00 in0.0 mm
08:00 PM 62.9°F17.2°C 59.0°F15.0°C 87% Calm Calm -- 29.88 in1011.9 mb - 0.00 in0.0 mm 0.00 in0.0 mm
08:10 PM 62.9°F17.2°C 59.3°F15.2°C 88% Calm Calm -- 29.88 in1011.9 mb - 0.00 in0.0 mm 0.00 in0.0 mm
08:20 PM 62.7°F17.1°C 59.4°F15.2°C 89% Calm Calm -- 29.87 in1011.5 mb - 0.00 in0.0 mm 0.00 in0.0 mm
08:30 PM 62.1°F16.7°C 59.4°F15.2°C 91% 0.3 mph NW0.5 kmh NW 2.6 mph4.2 kmh 29.88 in1011.9 mb - 0.00 in0.0 mm 0.00 in0.0 mm
08:40 PM 61.7°F16.5°C 59.4°F15.2°C 92% Calm Calm -- 29.87 in1011.5 mb - 0.00 in0.0 mm 0.00 in0.0 mm
08:50 PM 61.4°F16.3°C 59.7°F15.4°C 94% 0.1 mph NW0.2 kmh NW 1.3 mph2.1 kmh 29.87 in1011.5 mb - 0.00 in0.0 mm 0.00 in0.0 mm
09:00 PM 61.0°F16.1°C 59.6°F15.3°C 95% Calm Calm -- 29.87 in1011.5 mb - 0.00 in0.0 mm 0.00 in0.0 mm
09:10 PM 60.9°F16.1°C 59.5°F15.3°C 95% 0.7 mph NW1.1 kmh NW 2.6 mph4.2 kmh 29.87 in1011.5 mb - 0.00 in0.0 mm 0.00 in0.0 mm
09:20 PM 61.1°F16.2°C 59.4°F15.2°C 94% Calm Calm -- 29.87 in1011.5 mb - 0.00 in0.0 mm 0.00 in0.0 mm
09:30 PM 61.0°F16.1°C 59.0°F15.0°C 93% 0.9 mph WSW1.4 kmh WSW 2.6 mph4.2 kmh 29.87 in1011.5 mb - 0.00 in0.0 mm 0.00 in0.0 mm
09:40 PM 61.2°F16.2°C 59.1°F15.1°C 93% Calm Calm -- 29.87 in1011.5 mb - 0.00 in0.0 mm 0.00 in0.0 mm
09:50 PM 60.7°F15.9°C 59.2°F15.1°C 95% 0.5 mph WSW0.8 kmh WSW 1.3 mph2.1 kmh 29.87 in1011.5 mb - 0.00 in0.0 mm 0.00 in0.0 mm
10:00 PM 60.3°F15.7°C 58.9°F14.9°C 95% Calm Calm -- 29.86 in1011.2 mb - 0.00 in0.0 mm 0.00 in0.0 mm
10:10 PM 59.9°F15.5°C 58.8°F14.9°C 96% Calm Calm -- 29.86 in1011.2 mb - 0.00 in0.0 mm 0.00 in0.0 mm
10:20 PM 59.6°F15.3°C 59.0°F15.0°C 98% Calm Calm -- 29.86 in1011.2 mb - 0.00 in0.0 mm 0.00 in0.0 mm
10:30 PM 59.3°F15.2°C 58.7°F14.8°C 98% 1.3 mph WSW2.1 kmh WSW 2.6 mph4.2 kmh 29.86 in1011.2 mb - 0.00 in0.0 mm 0.00 in0.0 mm
10:40 PM 59.5°F15.3°C 58.6°F14.8°C 97% 1.9 mph WSW3.1 kmh WSW 2.6 mph4.2 kmh 29.86 in1011.2 mb - 0.00 in0.0 mm 0.00 in0.0 mm
10:50 PM 59.8°F15.4°C 58.7°F14.8°C 96% 1.1 mph SW1.8 kmh SW 2.6 mph4.2 kmh 29.86 in1011.2 mb - 0.00 in0.0 mm 0.00 in0.0 mm
11:00 PM 59.9°F15.5°C 58.5°F14.7°C 95% 0.5 mph NNE0.8 kmh NNE 2.6 mph4.2 kmh 29.86 in1011.2 mb - 0.00 in0.0 mm 0.00 in0.0 mm
11:10 PM 59.5°F15.3°C 58.4°F14.7°C 96% Calm Calm -- 29.86 in1011.2 mb - 0.00 in0.0 mm 0.00 in0.0 mm
11:20 PM 58.3°F14.6°C 57.8°F14.3°C 98% Calm Calm -- 29.86 in1011.2 mb - 0.00 in0.0 mm 0.00 in0.0 mm
11:30 PM 57.6°F14.2°C 56.8°F13.8°C 97% Calm Calm -- 29.86 in1011.2 mb - 0.00 in0.0 mm 0.00 in0.0 mm
11:40 PM 57.0°F13.9°C 56.1°F13.4°C 97% Calm Calm -- 29.86 in1011.2 mb - 0.00 in0.0 mm 0.00 in0.0 mm
11:50 PM 56.4°F13.6°C 55.6°F13.1°C 97% Calm Calm -- 29.86 in1011.2 mb - 0.00 in0.0 mm 0.00 in0.0 mm